sensor_id;sensor_type;location;lat;lon;timestamp;pressure;altitude;pressure_sealevel;temperature;humidity
55277;BME280;41136;51.478;-2.610;2023-11-22T00:00:00;102293.25;;;10.01;100.00
55277;BME280;41136;51.478;-2.610;2023-11-22T00:02:25;102297.74;;;10.02;100.00
55277;BME280;41136;51.478;-2.610;2023-11-22T00:04:51;102300.10;;;10.29;100.00
55277;BME280;41136;51.478;-2.610;2023-11-22T00:07:16;102299.04;;;10.40;100.00
55277;BME280;41136;51.478;-2.610;2023-11-22T00:09:41;102297.15;;;9.54;100.00
55277;BME280;41136;51.478;-2.610;2023-11-22T00:12:07;102300.04;;;9.97;100.00
55277;BME280;41136;51.478;-2.610;2023-11-22T00:14:32;102301.78;;;10.28;100.00
55277;BME280;41136;51.478;-2.610;2023-11-22T00:16:57;102305.63;;;10.17;100.00
55277;BME280;41136;51.478;-2.610;2023-11-22T00:19:23;102304.79;;;9.67;100.00
55277;BME280;41136;51.478;-2.610;2023-11-22T00:21:48;102305.09;;;9.66;100.00
55277;BME280;41136;51.478;-2.610;2023-11-22T00:24:13;102309.66;;;10.20;100.00
55277;BME280;41136;51.478;-2.610;2023-11-22T00:26:39;102308.55;;;9.66;100.00
55277;BME280;41136;51.478;-2.610;2023-11-22T00:29:04;102306.74;;;9.74;100.00
55277;BME280;41136;51.478;-2.610;2023-11-22T00:31:29;102304.87;;;9.99;100.00
55277;BME280;41136;51.478;-2.610;2023-11-22T00:33:55;102301.91;;;10.40;100.00
55277;BME280;41136;51.478;-2.610;2023-11-22T00:36:20;102297.99;;;10.55;100.00
55277;BME280;41136;51.478;-2.610;2023-11-22T00:38:46;102300.41;;;10.08;100.00
55277;BME280;41136;51.478;-2.610;2023-11-22T00:41:11;102302.71;;;10.19;100.00
55277;BME280;41136;51.478;-2.610;2023-11-22T00:43:37;102297.75;;;9.92;100.00
55277;BME280;41136;51.478;-2.610;2023-11-22T00:46:02;102300.01;;;9.63;100.00
55277;BME280;41136;51.478;-2.610;2023-11-22T00:48:27;102307.45;;;9.79;100.00
55277;BME280;41136;51.478;-2.610;2023-11-22T00:50:53;102310.88;;;10.42;100.00
55277;BME280;41136;51.478;-2.610;2023-11-22T00:53:18;102309.09;;;10.01;100.00
55277;BME280;41136;51.478;-2.610;2023-11-22T00:55:44;102301.47;;;10.07;100.00
55277;BME280;41136;51.478;-2.610;2023-11-22T00:58:09;102292.09;;;10.55;100.00
55277;BME280;41136;51.478;-2.610;2023-11-22T01:00:34;102292.83;;;10.46;100.00
55277;BME280;41136;51.478;-2.610;2023-11-22T01:03:00;102288.46;;;10.27;100.00
55277;BME280;41136;51.478;-2.610;2023-11-22T01:05:25;102293.39;;;10.34;100.00
55277;BME280;41136;51.478;-2.610;2023-11-22T01:07:50;102283.11;;;10.48;100.00
55277;BME280;41136;51.478;-2.610;2023-11-22T01:10:16;102280.80;;;10.77;100.00
55277;BME280;41136;51.478;-2.610;2023-11-22T01:12:41;102276.34;;;10.24;100.00
55277;BME280;41136;51.478;-2.610;2023-11-22T01:15:07;102274.01;;;10.48;100.00
55277;BME280;41136;51.478;-2.610;2023-11-22T01:17:32;102270.31;;;10.25;100.00
55277;BME280;41136;51.478;-2.610;2023-11-22T01:19:57;102266.49;;;10.38;100.00
55277;BME280;41136;51.478;-2.610;2023-11-22T01:22:23;102268.47;;;10.57;100.00
55277;BME280;41136;51.478;-2.610;2023-11-22T01:24:48;102269.94;;;10.56;100.00
55277;BME280;41136;51.478;-2.610;2023-11-22T01:27:14;102273.00;;;10.65;100.00
55277;BME280;41136;51.478;-2.610;2023-11-22T01:29:39;102271.09;;;10.58;100.00
55277;BME280;41136;51.478;-2.610;2023-11-22T01:32:05;102267.92;;;10.31;100.00
55277;BME280;41136;51.478;-2.610;2023-11-22T01:34:30;102272.50;;;10.95;99.74
55277;BME280;41136;51.478;-2.610;2023-11-22T01:36:55;102270.71;;;10.62;99.95
55277;BME280;41136;51.478;-2.610;2023-11-22T01:39:25;102277.48;;;10.44;100.00
55277;BME280;41136;51.478;-2.610;2023-11-22T01:41:46;102277.48;;;10.59;100.00
55277;BME280;41136;51.478;-2.610;2023-11-22T01:44:12;102280.38;;;10.45;100.00
55277;BME280;41136;51.478;-2.610;2023-11-22T01:46:37;102285.85;;;10.74;100.00
55277;BME280;41136;51.478;-2.610;2023-11-22T01:49:02;102289.90;;;10.25;100.00
55277;BME280;41136;51.478;-2.610;2023-11-22T01:51:27;102293.29;;;10.31;100.00
55277;BME280;41136;51.478;-2.610;2023-11-22T01:53:54;102293.68;;;10.21;100.00
55277;BME280;41136;51.478;-2.610;2023-11-22T01:56:18;102293.86;;;9.94;100.00
55277;BME280;41136;51.478;-2.610;2023-11-22T01:58:44;102287.94;;;10.21;100.00
55277;BME280;41136;51.478;-2.610;2023-11-22T02:01:09;102289.81;;;10.39;100.00
55277;BME280;41136;51.478;-2.610;2023-11-22T02:03:34;102294.99;;;10.29;100.00
55277;BME280;41136;51.478;-2.610;2023-11-22T02:05:59;102299.75;;;10.24;100.00
55277;BME280;41136;51.478;-2.610;2023-11-22T02:08:25;102300.81;;;10.51;100.00
55277;BME280;41136;51.478;-2.610;2023-11-22T02:10:58;102300.86;;;10.59;100.00
55277;BME280;41136;51.478;-2.610;2023-11-22T02:13:15;102298.65;;;10.11;100.00
55277;BME280;41136;51.478;-2.610;2023-11-22T02:15:41;102299.38;;;9.82;100.00
55277;BME280;41136;51.478;-2.610;2023-11-22T02:18:06;102292.92;;;9.42;100.00
55277;BME280;41136;51.478;-2.610;2023-11-22T02:20:32;102291.41;;;9.51;100.00
55277;BME280;41136;51.478;-2.610;2023-11-22T02:22:57;102298.42;;;9.37;100.00
55277;BME280;41136;51.478;-2.610;2023-11-22T02:25:22;102298.41;;;9.71;100.00
55277;BME280;41136;51.478;-2.610;2023-11-22T02:27:47;102303.90;;;10.15;100.00
55277;BME280;41136;51.478;-2.610;2023-11-22T02:30:13;102299.36;;;9.92;100.00
55277;BME280;41136;51.478;-2.610;2023-11-22T02:32:38;102302.78;;;9.79;100.00
55277;BME280;41136;51.478;-2.610;2023-11-22T02:35:04;102298.99;;;10.31;100.00
55277;BME280;41136;51.478;-2.610;2023-11-22T02:37:29;102287.56;;;10.50;100.00
55277;BME280;41136;51.478;-2.610;2023-11-22T02:40:00;102278.25;;;10.56;100.00
55277;BME280;41136;51.478;-2.610;2023-11-22T02:42:19;102281.08;;;10.92;100.00
55277;BME280;41136;51.478;-2.610;2023-11-22T02:44:45;102279.49;;;10.43;100.00
55277;BME280;41136;51.478;-2.610;2023-11-22T02:47:10;102274.28;;;10.38;100.00
55277;BME280;41136;51.478;-2.610;2023-11-22T02:49:36;102267.28;;;10.48;100.00
55277;BME280;41136;51.478;-2.610;2023-11-22T02:55:16;102245.62;;;10.42;97.85
55277;BME280;41136;51.478;-2.610;2023-11-22T02:57:41;102249.19;;;10.93;97.11
55277;BME280;41136;51.478;-2.610;2023-11-22T03:00:08;102247.20;;;10.93;96.69
55277;BME280;41136;51.478;-2.610;2023-11-22T03:02:32;102254.20;;;10.42;96.56
55277;BME280;41136;51.478;-2.610;2023-11-22T03:04:57;102256.45;;;10.87;97.13
55277;BME280;41136;51.478;-2.610;2023-11-22T03:07:23;102250.36;;;11.43;96.68
55277;BME280;41136;51.478;-2.610;2023-11-22T03:09:48;102245.16;;;11.30;97.32
55277;BME280;41136;51.478;-2.610;2023-11-22T03:12:13;102252.11;;;10.94;98.20
55277;BME280;41136;51.478;-2.610;2023-11-22T03:14:39;102249.34;;;10.86;98.62
55277;BME280;41136;51.478;-2.610;2023-11-22T03:17:04;102244.34;;;10.91;98.21
55277;BME280;41136;51.478;-2.610;2023-11-22T03:19:29;102239.44;;;10.98;97.98
55277;BME280;41136;51.478;-2.610;2023-11-22T03:21:54;102235.73;;;10.71;98.14
55277;BME280;41136;51.478;-2.610;2023-11-22T03:24:20;102238.21;;;10.50;99.00
55277;BME280;41136;51.478;-2.610;2023-11-22T03:26:45;102248.38;;;10.90;98.96
55277;BME280;41136;51.478;-2.610;2023-11-22T03:29:11;102253.70;;;10.62;98.41
55277;BME280;41136;51.478;-2.610;2023-11-22T03:31:36;102255.48;;;10.47;99.13
55277;BME280;41136;51.478;-2.610;2023-11-22T03:34:01;102253.18;;;10.33;100.00
55277;BME280;41136;51.478;-2.610;2023-11-22T03:36:27;102261.89;;;10.16;100.00
55277;BME280;41136;51.478;-2.610;2023-11-22T03:38:52;102268.81;;;10.39;99.93
55277;BME280;41136;51.478;-2.610;2023-11-22T03:41:17;102268.26;;;10.41;99.64
55277;BME280;41136;51.478;-2.610;2023-11-22T03:43:43;102261.97;;;10.21;100.00
55277;BME280;41136;51.478;-2.610;2023-11-22T03:46:08;102260.68;;;10.31;100.00
55277;BME280;41136;51.478;-2.610;2023-11-22T03:48:34;102258.18;;;10.43;100.00
55277;BME280;41136;51.478;-2.610;2023-11-22T03:50:59;102258.75;;;10.48;100.00
55277;BME280;41136;51.478;-2.610;2023-11-22T03:53:24;102260.50;;;10.46;100.00
55277;BME280;41136;51.478;-2.610;2023-11-22T03:55:50;102260.60;;;9.63;100.00
55277;BME280;41136;51.478;-2.610;2023-11-22T03:58:15;102264.72;;;9.42;100.00
55277;BME280;41136;51.478;-2.610;2023-11-22T04:00:41;102261.80;;;9.36;100.00
55277;BME280;41136;51.478;-2.610;2023-11-22T04:03:06;102261.82;;;9.88;100.00
55277;BME280;41136;51.478;-2.610;2023-11-22T04:05:31;102259.76;;;10.40;100.00
55277;BME280;41136;51.478;-2.610;2023-11-22T04:07:57;102261.38;;;9.67;100.00
55277;BME280;41136;51.478;-2.610;2023-11-22T04:10:22;102257.81;;;9.52;100.00
55277;BME280;41136;51.478;-2.610;2023-11-22T04:12:48;102258.21;;;9.78;100.00
55277;BME280;41136;51.478;-2.610;2023-11-22T04:15:13;102254.06;;;9.70;100.00
55277;BME280;41136;51.478;-2.610;2023-11-22T04:17:38;102256.54;;;9.81;100.00
55277;BME280;41136;51.478;-2.610;2023-11-22T04:20:05;102259.93;;;10.42;100.00
55277;BME280;41136;51.478;-2.610;2023-11-22T04:22:29;102260.68;;;10.32;100.00
55277;BME280;41136;51.478;-2.610;2023-11-22T04:24:54;102265.75;;;10.80;100.00
55277;BME280;41136;51.478;-2.610;2023-11-22T04:27:19;102268.66;;;9.75;100.00
55277;BME280;41136;51.478;-2.610;2023-11-22T04:29:45;102265.85;;;9.70;100.00
55277;BME280;41136;51.478;-2.610;2023-11-22T04:32:10;102251.99;;;10.36;100.00
55277;BME280;41136;51.478;-2.610;2023-11-22T04:34:35;102251.54;;;10.31;100.00
55277;BME280;41136;51.478;-2.610;2023-11-22T04:37:01;102240.39;;;10.58;100.00
55277;BME280;41136;51.478;-2.610;2023-11-22T04:39:26;102238.57;;;10.52;100.00
55277;BME280;41136;51.478;-2.610;2023-11-22T04:41:51;102236.65;;;10.48;100.00
55277;BME280;41136;51.478;-2.610;2023-11-22T04:44:17;102246.55;;;10.32;100.00
55277;BME280;41136;51.478;-2.610;2023-11-22T04:46:42;102246.84;;;10.41;100.00
55277;BME280;41136;51.478;-2.610;2023-11-22T04:49:07;102245.10;;;10.65;100.00
55277;BME280;41136;51.478;-2.610;2023-11-22T04:51:33;102241.75;;;10.68;100.00
55277;BME280;41136;51.478;-2.610;2023-11-22T04:53:58;102237.37;;;10.90;99.34
55277;BME280;41136;51.478;-2.610;2023-11-22T04:56:24;102242.20;;;10.79;99.48
55277;BME280;41136;51.478;-2.610;2023-11-22T04:58:49;102239.37;;;10.81;99.51
55277;BME280;41136;51.478;-2.610;2023-11-22T05:01:14;102230.77;;;10.90;99.57
55277;BME280;41136;51.478;-2.610;2023-11-22T05:03:40;102230.92;;;10.89;99.70
55277;BME280;41136;51.478;-2.610;2023-11-22T05:06:06;102227.24;;;11.09;99.50
55277;BME280;41136;51.478;-2.610;2023-11-22T05:08:30;102227.13;;;10.68;99.51
55277;BME280;41136;51.478;-2.610;2023-11-22T05:10:56;102229.98;;;10.95;99.59
55277;BME280;41136;51.478;-2.610;2023-11-22T05:13:21;102230.93;;;10.94;99.75
55277;BME280;41136;51.478;-2.610;2023-11-22T05:15:46;102228.58;;;10.81;99.51
55277;BME280;41136;51.478;-2.610;2023-11-22T05:18:12;102225.96;;;10.99;99.59
55277;BME280;41136;51.478;-2.610;2023-11-22T05:20:37;102227.91;;;10.77;100.00
55277;BME280;41136;51.478;-2.610;2023-11-22T05:23:02;102240.79;;;10.29;100.00
55277;BME280;41136;51.478;-2.610;2023-11-22T05:25:27;102239.62;;;10.99;100.00
55277;BME280;41136;51.478;-2.610;2023-11-22T05:27:53;102230.76;;;11.12;99.86
55277;BME280;41136;51.478;-2.610;2023-11-22T05:30:18;102225.94;;;10.86;100.00
55277;BME280;41136;51.478;-2.610;2023-11-22T05:32:44;102230.47;;;10.53;100.00
55277;BME280;41136;51.478;-2.610;2023-11-22T05:35:09;102222.34;;;10.74;100.00
55277;BME280;41136;51.478;-2.610;2023-11-22T05:37:34;102222.05;;;11.03;100.00
55277;BME280;41136;51.478;-2.610;2023-11-22T05:39:59;102214.60;;;10.95;99.88
55277;BME280;41136;51.478;-2.610;2023-11-22T05:42:25;102202.41;;;11.29;99.09
55277;BME280;41136;51.478;-2.610;2023-11-22T05:47:37;102197.27;;;11.31;96.76
55277;BME280;41136;51.478;-2.610;2023-11-22T05:52:03;102196.40;;;11.37;94.12
55277;BME280;41136;51.478;-2.610;2023-11-22T05:54:28;102199.90;;;11.33;94.05
55277;BME280;41136;51.478;-2.610;2023-11-22T05:56:54;102200.12;;;11.66;94.19
55277;BME280;41136;51.478;-2.610;2023-11-22T05:59:19;102193.85;;;11.30;93.50
55277;BME280;41136;51.478;-2.610;2023-11-22T06:01:44;102194.49;;;12.00;94.09
55277;BME280;41136;51.478;-2.610;2023-11-22T06:04:09;102198.85;;;11.56;95.60
55277;BME280;41136;51.478;-2.610;2023-11-22T06:06:35;102202.05;;;11.56;96.62
55277;BME280;41136;51.478;-2.610;2023-11-22T06:09:00;102197.04;;;11.35;97.32
55277;BME280;41136;51.478;-2.610;2023-11-22T06:11:26;102194.71;;;11.32;97.69
55277;BME280;41136;51.478;-2.610;2023-11-22T06:13:51;102195.36;;;11.70;97.41
55277;BME280;41136;51.478;-2.610;2023-11-22T06:16:16;102205.05;;;11.34;97.99
55277;BME280;41136;51.478;-2.610;2023-11-22T06:18:42;102210.42;;;11.33;97.93
55277;BME280;41136;51.478;-2.610;2023-11-22T06:21:07;102210.37;;;11.25;98.34
55277;BME280;41136;51.478;-2.610;2023-11-22T06:23:32;102217.64;;;10.10;100.00
55277;BME280;41136;51.478;-2.610;2023-11-22T06:25:58;102226.30;;;10.48;100.00
55277;BME280;41136;51.478;-2.610;2023-11-22T06:28:23;102236.33;;;10.80;100.00
55277;BME280;41136;51.478;-2.610;2023-11-22T06:30:48;102230.60;;;11.13;99.33
55277;BME280;41136;51.478;-2.610;2023-11-22T06:33:14;102240.78;;;11.02;99.21
55277;BME280;41136;51.478;-2.610;2023-11-22T06:35:39;102243.99;;;10.40;100.00
55277;BME280;41136;51.478;-2.610;2023-11-22T06:38:04;102248.33;;;10.76;100.00
55277;BME280;41136;51.478;-2.610;2023-11-22T06:40:29;102236.95;;;10.72;100.00
55277;BME280;41136;51.478;-2.610;2023-11-22T06:42:55;102237.44;;;10.17;100.00
55277;BME280;41136;51.478;-2.610;2023-11-22T06:45:20;102237.39;;;10.57;100.00
55277;BME280;41136;51.478;-2.610;2023-11-22T06:47:46;102241.79;;;10.71;100.00
55277;BME280;41136;51.478;-2.610;2023-11-22T06:50:11;102248.61;;;10.87;99.74
55277;BME280;41136;51.478;-2.610;2023-11-22T06:52:37;102261.83;;;10.59;100.00
55277;BME280;41136;51.478;-2.610;2023-11-22T06:55:02;102268.58;;;10.34;100.00
55277;BME280;41136;51.478;-2.610;2023-11-22T06:57:27;102255.06;;;10.88;100.00
55277;BME280;41136;51.478;-2.610;2023-11-22T06:59:52;102262.03;;;11.01;100.00
55277;BME280;41136;51.478;-2.610;2023-11-22T07:02:18;102263.98;;;11.28;99.91
55277;BME280;41136;51.478;-2.610;2023-11-22T07:04:43;102267.49;;;10.59;100.00
55277;BME280;41136;51.478;-2.610;2023-11-22T07:07:08;102272.77;;;10.75;100.00
55277;BME280;41136;51.478;-2.610;2023-11-22T07:09:34;102265.32;;;10.55;100.00
55277;BME280;41136;51.478;-2.610;2023-11-22T07:12:00;102271.40;;;10.35;100.00
55277;BME280;41136;51.478;-2.610;2023-11-22T07:14:25;102263.55;;;10.76;100.00
55277;BME280;41136;51.478;-2.610;2023-11-22T07:16:50;102259.29;;;10.62;100.00
55277;BME280;41136;51.478;-2.610;2023-11-22T07:19:16;102261.75;;;10.86;100.00
55277;BME280;41136;51.478;-2.610;2023-11-22T07:21:41;102262.58;;;10.54;100.00
55277;BME280;41136;51.478;-2.610;2023-11-22T07:24:07;102267.97;;;10.37;100.00
55277;BME280;41136;51.478;-2.610;2023-11-22T07:26:32;102273.78;;;9.92;100.00
55277;BME280;41136;51.478;-2.610;2023-11-22T07:28:57;102281.54;;;9.60;100.00
55277;BME280;41136;51.478;-2.610;2023-11-22T07:31:22;102284.16;;;9.73;100.00
55277;BME280;41136;51.478;-2.610;2023-11-22T07:33:48;102283.05;;;9.68;100.00
55277;BME280;41136;51.478;-2.610;2023-11-22T07:36:13;102283.20;;;9.78;100.00
55277;BME280;41136;51.478;-2.610;2023-11-22T07:38:38;102284.07;;;9.84;100.00
55277;BME280;41136;51.478;-2.610;2023-11-22T07:41:04;102285.10;;;9.95;100.00
55277;BME280;41136;51.478;-2.610;2023-11-22T07:43:29;102279.08;;;10.12;100.00
55277;BME280;41136;51.478;-2.610;2023-11-22T07:45:54;102276.00;;;10.67;100.00
55277;BME280;41136;51.478;-2.610;2023-11-22T07:48:20;102268.10;;;10.27;100.00
55277;BME280;41136;51.478;-2.610;2023-11-22T07:50:45;102261.82;;;10.05;100.00
55277;BME280;41136;51.478;-2.610;2023-11-22T07:53:12;102251.44;;;10.33;100.00
55277;BME280;41136;51.478;-2.610;2023-11-22T07:55:36;102260.99;;;10.34;100.00
55277;BME280;41136;51.478;-2.610;2023-11-22T07:58:01;102270.76;;;9.89;100.00
55277;BME280;41136;51.478;-2.610;2023-11-22T08:00:27;102260.51;;;10.43;100.00
55277;BME280;41136;51.478;-2.610;2023-11-22T08:02:52;102251.33;;;10.29;100.00
55277;BME280;41136;51.478;-2.610;2023-11-22T08:05:17;102252.70;;;10.55;100.00
55277;BME280;41136;51.478;-2.610;2023-11-22T08:07:43;102255.99;;;10.31;100.00
55277;BME280;41136;51.478;-2.610;2023-11-22T08:10:09;102252.62;;;10.19;100.00
55277;BME280;41136;51.478;-2.610;2023-11-22T08:12:33;102260.10;;;10.19;100.00
55277;BME280;41136;51.478;-2.610;2023-11-22T08:14:59;102256.54;;;10.13;100.00
55277;BME280;41136;51.478;-2.610;2023-11-22T08:17:24;102249.93;;;10.57;100.00
55277;BME280;41136;51.478;-2.610;2023-11-22T08:19:49;102244.70;;;11.17;100.00
55277;BME280;41136;51.478;-2.610;2023-11-22T08:22:15;102241.19;;;10.69;100.00
55277;BME280;41136;51.478;-2.610;2023-11-22T08:24:40;102248.07;;;10.57;100.00
55277;BME280;41136;51.478;-2.610;2023-11-22T08:27:05;102257.23;;;10.68;100.00
55277;BME280;41136;51.478;-2.610;2023-11-22T08:29:31;102248.96;;;11.17;100.00
55277;BME280;41136;51.478;-2.610;2023-11-22T08:31:56;102252.02;;;10.91;100.00
55277;BME280;41136;51.478;-2.610;2023-11-22T08:34:21;102246.79;;;11.22;100.00
55277;BME280;41136;51.478;-2.610;2023-11-22T08:36:47;102237.28;;;10.74;100.00
55277;BME280;41136;51.478;-2.610;2023-11-22T08:39:12;102231.78;;;10.96;100.00
55277;BME280;41136;51.478;-2.610;2023-11-22T08:41:37;102226.49;;;10.60;100.00
55277;BME280;41136;51.478;-2.610;2023-11-22T08:44:03;102218.55;;;10.81;100.00
55277;BME280;41136;51.478;-2.610;2023-11-22T08:46:28;102218.54;;;10.87;100.00
55277;BME280;41136;51.478;-2.610;2023-11-22T08:48:53;102213.86;;;10.66;100.00
55277;BME280;41136;51.478;-2.610;2023-11-22T08:51:19;102213.78;;;11.37;100.00
55277;BME280;41136;51.478;-2.610;2023-11-22T08:53:44;102222.38;;;10.82;100.00
55277;BME280;41136;51.478;-2.610;2023-11-22T08:56:09;102225.09;;;11.23;100.00
55277;BME280;41136;51.478;-2.610;2023-11-22T08:58:35;102222.65;;;11.49;100.00
55277;BME280;41136;51.478;-2.610;2023-11-22T09:01:00;102227.94;;;10.95;100.00
55277;BME280;41136;51.478;-2.610;2023-11-22T09:03:25;102230.63;;;10.89;100.00
55277;BME280;41136;51.478;-2.610;2023-11-22T09:05:51;102231.95;;;10.93;100.00
55277;BME280;41136;51.478;-2.610;2023-11-22T09:08:16;102220.59;;;11.45;100.00
55277;BME280;41136;51.478;-2.610;2023-11-22T09:10:42;102213.86;;;11.30;100.00
55277;BME280;41136;51.478;-2.610;2023-11-22T09:13:07;102213.61;;;11.08;100.00
55277;BME280;41136;51.478;-2.610;2023-11-22T09:15:32;102216.63;;;10.70;100.00
55277;BME280;41136;51.478;-2.610;2023-11-22T09:17:57;102217.78;;;11.22;100.00
55277;BME280;41136;51.478;-2.610;2023-11-22T09:20:23;102213.87;;;11.85;100.00
55277;BME280;41136;51.478;-2.610;2023-11-22T09:22:50;102209.43;;;11.04;100.00
55277;BME280;41136;51.478;-2.610;2023-11-22T09:25:14;102208.87;;;11.47;100.00
55277;BME280;41136;51.478;-2.610;2023-11-22T09:27:39;102201.82;;;10.81;100.00
55277;BME280;41136;51.478;-2.610;2023-11-22T09:30:05;102201.39;;;10.90;100.00
55277;BME280;41136;51.478;-2.610;2023-11-22T09:32:29;102206.12;;;11.13;100.00
55277;BME280;41136;51.478;-2.610;2023-11-22T09:34:55;102201.93;;;11.32;100.00
55277;BME280;41136;51.478;-2.610;2023-11-22T09:37:20;102208.49;;;11.11;100.00
55277;BME280;41136;51.478;-2.610;2023-11-22T09:39:45;102214.66;;;11.35;100.00
55277;BME280;41136;51.478;-2.610;2023-11-22T09:42:11;102216.84;;;10.86;100.00
55277;BME280;41136;51.478;-2.610;2023-11-22T09:44:36;102227.88;;;10.74;100.00
55277;BME280;41136;51.478;-2.610;2023-11-22T09:47:03;102225.97;;;11.15;100.00
55277;BME280;41136;51.478;-2.610;2023-11-22T09:49:28;102228.97;;;10.82;100.00
55277;BME280;41136;51.478;-2.610;2023-11-22T09:51:54;102231.27;;;10.71;100.00
55277;BME280;41136;51.478;-2.610;2023-11-22T09:54:18;102240.23;;;10.43;100.00
55277;BME280;41136;51.478;-2.610;2023-11-22T09:56:43;102242.25;;;10.38;100.00
55277;BME280;41136;51.478;-2.610;2023-11-22T09:59:08;102238.82;;;10.34;100.00
55277;BME280;41136;51.478;-2.610;2023-11-22T10:01:33;102228.74;;;10.85;100.00
55277;BME280;41136;51.478;-2.610;2023-11-22T10:03:59;102232.72;;;10.69;100.00
55277;BME280;41136;51.478;-2.610;2023-11-22T10:06:24;102231.62;;;10.93;100.00
55277;BME280;41136;51.478;-2.610;2023-11-22T10:08:49;102237.22;;;10.40;100.00
55277;BME280;41136;51.478;-2.610;2023-11-22T10:11:15;102229.89;;;11.03;100.00
55277;BME280;41136;51.478;-2.610;2023-11-22T10:13:40;102217.88;;;10.80;100.00
55277;BME280;41136;51.478;-2.610;2023-11-22T10:16:10;102211.64;;;11.59;100.00
55277;BME280;41136;51.478;-2.610;2023-11-22T10:18:31;102205.94;;;11.97;100.00
55277;BME280;41136;51.478;-2.610;2023-11-22T10:20:56;102200.17;;;11.54;100.00
55277;BME280;41136;51.478;-2.610;2023-11-22T10:23:21;102204.28;;;11.37;100.00
55277;BME280;41136;51.478;-2.610;2023-11-22T10:25:48;102205.56;;;10.53;100.00
55277;BME280;41136;51.478;-2.610;2023-11-22T10:28:12;102210.58;;;10.46;100.00
55277;BME280;41136;51.478;-2.610;2023-11-22T10:30:37;102202.36;;;11.20;100.00
55277;BME280;41136;51.478;-2.610;2023-11-22T10:33:03;102211.89;;;11.43;100.00
55277;BME280;41136;51.478;-2.610;2023-11-22T10:35:28;102221.94;;;11.24;100.00
55277;BME280;41136;51.478;-2.610;2023-11-22T10:37:53;102220.57;;;10.97;100.00
55277;BME280;41136;51.478;-2.610;2023-11-22T10:40:19;102213.46;;;11.93;100.00
55277;BME280;41136;51.478;-2.610;2023-11-22T10:42:45;102207.17;;;11.64;100.00
55277;BME280;41136;51.478;-2.610;2023-11-22T10:45:09;102214.00;;;11.37;100.00
55277;BME280;41136;51.478;-2.610;2023-11-22T10:47:36;102193.65;;;11.88;100.00
55277;BME280;41136;51.478;-2.610;2023-11-22T10:50:00;102188.79;;;11.50;100.00
55277;BME280;41136;51.478;-2.610;2023-11-22T10:52:27;102236.76;;;11.86;100.00
55277;BME280;41136;51.478;-2.610;2023-11-22T10:54:55;102251.75;;;11.56;100.00
55277;BME280;41136;51.478;-2.610;2023-11-22T10:57:18;102245.91;;;12.38;100.00
55277;BME280;41136;51.478;-2.610;2023-11-22T10:59:43;102225.05;;;12.69;100.00
55277;BME280;41136;51.478;-2.610;2023-11-22T11:02:10;102204.15;;;12.49;100.00
55277;BME280;41136;51.478;-2.610;2023-11-22T11:04:35;102203.40;;;12.36;100.00
55277;BME280;41136;51.478;-2.610;2023-11-22T11:06:57;102215.29;;;12.74;100.00
55277;BME280;41136;51.478;-2.610;2023-11-22T11:09:24;102205.89;;;12.33;100.00
55277;BME280;41136;51.478;-2.610;2023-11-22T11:11:48;102204.47;;;12.46;100.00
55277;BME280;41136;51.478;-2.610;2023-11-22T11:14:14;102210.37;;;11.21;100.00
55277;BME280;41136;51.478;-2.610;2023-11-22T11:16:39;102208.75;;;11.70;100.00
55277;BME280;41136;51.478;-2.610;2023-11-22T11:19:05;102201.96;;;11.58;100.00
55277;BME280;41136;51.478;-2.610;2023-11-22T11:21:29;102207.71;;;11.69;100.00
55277;BME280;41136;51.478;-2.610;2023-11-22T11:23:55;102213.29;;;11.52;100.00
55277;BME280;41136;51.478;-2.610;2023-11-22T11:26:20;102218.74;;;11.71;100.00
55277;BME280;41136;51.478;-2.610;2023-11-22T11:28:47;102216.83;;;11.76;100.00
55277;BME280;41136;51.478;-2.610;2023-11-22T11:31:11;102217.92;;;12.06;100.00
55277;BME280;41136;51.478;-2.610;2023-11-22T11:36:03;102201.30;;;11.73;100.00
55277;BME280;41136;51.478;-2.610;2023-11-22T11:38:31;102190.72;;;12.67;100.00
55277;BME280;41136;51.478;-2.610;2023-11-22T11:40:52;102189.58;;;12.57;100.00
55277;BME280;41136;51.478;-2.610;2023-11-22T11:43:21;102181.32;;;12.22;100.00
55277;BME280;41136;51.478;-2.610;2023-11-22T11:45:43;102179.24;;;12.79;100.00
55277;BME280;41136;51.478;-2.610;2023-11-22T11:48:08;102169.27;;;12.36;100.00
55277;BME280;41136;51.478;-2.610;2023-11-22T11:50:34;102166.53;;;12.50;100.00
55277;BME280;41136;51.478;-2.610;2023-11-22T11:52:58;102157.59;;;13.17;100.00
55277;BME280;41136;51.478;-2.610;2023-11-22T11:55:25;102150.12;;;11.32;100.00
55277;BME280;41136;51.478;-2.610;2023-11-22T11:57:49;102139.61;;;11.79;100.00
55277;BME280;41136;51.478;-2.610;2023-11-22T12:00:15;102139.07;;;12.07;100.00
55277;BME280;41136;51.478;-2.610;2023-11-22T12:02:40;102133.20;;;11.86;100.00
55277;BME280;41136;51.478;-2.610;2023-11-22T12:05:07;102120.74;;;11.74;100.00
55277;BME280;41136;51.478;-2.610;2023-11-22T12:07:31;102114.33;;;11.84;100.00
55277;BME280;41136;51.478;-2.610;2023-11-22T12:09:56;102111.97;;;11.94;100.00
55277;BME280;41136;51.478;-2.610;2023-11-22T12:12:21;102103.27;;;11.76;100.00
55277;BME280;41136;51.478;-2.610;2023-11-22T12:14:47;102098.68;;;11.74;100.00
55277;BME280;41136;51.478;-2.610;2023-11-22T12:17:13;102103.09;;;11.32;100.00
55277;BME280;41136;51.478;-2.610;2023-11-22T12:19:37;102098.31;;;11.49;100.00
55277;BME280;41136;51.478;-2.610;2023-11-22T12:22:05;102095.73;;;11.82;100.00
55277;BME280;41136;51.478;-2.610;2023-11-22T12:24:28;102098.93;;;12.23;100.00
55277;BME280;41136;51.478;-2.610;2023-11-22T12:26:54;102090.03;;;12.86;100.00
55277;BME280;41136;51.478;-2.610;2023-11-22T12:29:19;102085.21;;;12.20;100.00
55277;BME280;41136;51.478;-2.610;2023-11-22T12:31:45;102083.68;;;12.63;100.00